CST,Max TemperatureF,Mean TemperatureF,Min TemperatureF,Max Dew PointF,MeanDew PointF,Min DewpointF,Max Humidity, Mean Humidity, Min Humidity, Max Sea Level PressureIn, Mean Sea Level PressureIn, Min Sea Level PressureIn, Max VisibilityMiles, Mean VisibilityMiles, Min VisibilityMiles, Max Wind SpeedMPH, Mean Wind SpeedMPH, Max Gust SpeedMPH,PrecipitationIn, CloudCover, Events, WindDirDegrees
2013-11-1,55,47,39,41,38,36,93,75,51,29.88,29.73,29.54,10,10,9,21,10,30,0.00,3,,284
2013-11-2,53,44,35,41,35,30,87,71,41,30.15,30.06,29.88,10,10,9,18,11,25,0.00,4,Snow,297
2013-11-3,55,44,32,36,33,30,93,66,41,30.16,30.06,29.93,10,10,10,28,12,38,0.00,2,Snow,161
2013-11-4,53,48,44,48,44,37,93,81,66,30.14,30.00,29.92,10,9,3,18,13,26,0.18,8,Rain,166
2013-11-5,59,54,48,57,51,43,100,93,82,30.16,29.99,29.80,10,6,1,23,9,29,0.37,8,Rain,132
2013-11-6,51,42,32,52,33,27,100,80,49,30.28,30.11,29.83,10,9,2,23,15,30,0.09,5,Rain,306
2013-11-7,50,40,30,34,29,23,100,72,43,30.33,30.30,30.25,10,10,4,18,8,23,0.00,1,,266
2013-11-8,59,42,26,37,30,23,86,58,39,30.30,30.03,29.83,10,10,10,34,13,45,0.00,2,,185
2013-11-9,59,50,41,36,34,28,70,56,39,30.29,30.07,29.88,10,10,10,21,12,26,0.00,0,,279
2013-11-10,50,40,30,32,29,25,86,63,43,30.43,30.32,30.18,10,10,2,14,8,15,0.00,3,,233
2013-11-11,50,34,19,43,27,12,93,72,54,30.68,30.33,30.11,10,9,0,24,12,33,0.00,7,Rain-Snow,332
2013-11-12,30,20,10,14,10,7,86,66,40,30.84,30.73,30.60,10,10,10,13,8,17,0.00,0,,290
2013-11-13,48,34,21,21,13,10,68,45,22,30.59,30.33,30.08,10,10,9,24,12,31,0.00,0,,206
2013-11-14,53,43,33,28,26,21,65,53,35,30.08,29.96,29.90,10,10,9,18,14,25,0.00,2,,212
2013-11-15,57,44,32,41,32,28,87,64,41,29.93,29.85,29.73,10,10,8,16,9,21,0.00,2,,190
2013-11-16,68,57,46,57,52,41,94,80,64,29.73,29.50,29.36,10,10,4,34,19,44,0.10,7,Rain,187
2013-11-17,59,50,41,57,46,36,100,86,67,29.99,29.57,29.27,10,8,0,23,9,34,0.11,5,Fog-Rain,293
2013-11-18,50,41,32,36,31,28,93,74,47,30.27,30.17,29.99,10,10,10,18,10,24,0.00,0,,303
2013-11-19,55,44,32,32,29,27,87,63,38,30.26,30.15,30.02,10,10,10,21,12,29,0.00,2,,148
2013-11-20,46,40,35,39,33,23,100,79,43,30.03,29.97,29.89,10,9,2,22,15,28,0.70,8,Rain-Snow,155
2013-11-21,41,34,26,39,33,25,100,95,86,30.40,30.17,29.99,9,3,0,22,9,28,0.09,7,Rain-Snow,11
2013-11-22,26,20,15,25,19,10,93,88,79,30.57,30.47,30.40,10,5,2,21,14,25,0.00,1,Snow,299
2013-11-23,19,12,6,12,5,1,79,69,53,30.79,30.73,30.56,10,10,10,20,11,24,0.00,2,,337
2013-11-24,26,16,5,14,7,0,85,67,47,30.74,30.54,30.27,10,10,10,17,7,22,0.00,2,,198
2013-11-25,35,30,24,27,21,14,86,71,59,30.27,30.15,30.09,10,10,5,17,13,23,0.00,6,,231
2013-11-26,30,24,15,25,17,9,93,70,50,30.34,30.23,30.11,10,10,10,25,11,32,0.00,4,,322
2013-11-27,26,18,10,14,10,7,85,65,47,30.39,30.27,30.08,10,10,10,17,8,22,0.00,3,,251
2013-11-28,33,26,17,18,16,14,86,65,48,30.50,30.28,30.06,10,10,10,18,11,23,0.00,0,,300
2013-11-29,41,28,14,25,19,10,93,71,49,30.51,30.40,30.24,10,10,9,16,6,21,0.00,2,,153
2013-11-30,50,40,30,34,29,25,87,70,50,30.23,30.11,30.05,10,10,10,15,9,18,0.00,0,,220